createdAt,value
2018-06-24T00:01:20.597Z,100091.87
2018-06-24T00:03:49.198Z,100089.09
2018-06-24T00:06:17.748Z,100090.24
2018-06-24T00:08:46.333Z,100094.47
2018-06-24T00:11:14.871Z,100090.80
2018-06-24T00:13:43.473Z,100092.38
2018-06-24T00:16:12.048Z,100096.09
2018-06-24T00:18:40.625Z,100091.86
2018-06-24T00:21:09.414Z,100092.34
2018-06-24T00:23:38.003Z,100094.74
2018-06-24T00:26:06.545Z,100096.20
2018-06-24T00:28:35.129Z,100089.09
2018-06-24T00:31:03.677Z,100085.80
2018-06-24T00:33:32.241Z,100079.52
2018-06-24T00:36:00.773Z,100082.18
2018-06-24T00:38:29.379Z,100080.87
2018-06-24T00:40:58.783Z,100076.92
2018-06-24T00:43:27.309Z,100066.14
2018-06-24T00:45:55.926Z,100074.55
2018-06-24T00:48:24.477Z,100070.45
2018-06-24T00:50:53.077Z,100064.41
2018-06-24T00:53:21.883Z,100068.98
2018-06-24T00:55:50.470Z,100065.51
2018-06-24T00:58:19.014Z,100060.96
2018-06-24T01:00:47.598Z,100059.80
2018-06-24T01:03:16.143Z,100055.00
2018-06-24T01:05:44.741Z,100056.09
2018-06-24T01:08:13.286Z,100056.41
2018-06-24T01:10:41.861Z,100051.16
2018-06-24T01:13:10.418Z,100044.14
2018-06-24T01:15:39.005Z,100048.41
2018-06-24T01:18:13.829Z,100043.51
2018-06-24T01:20:42.469Z,100049.64
2018-06-24T01:23:11.009Z,100045.91
2018-06-24T01:25:39.580Z,100043.68
2018-06-24T01:28:08.253Z,100044.83
2018-06-24T01:30:36.833Z,100043.67
2018-06-24T01:33:05.399Z,100040.30
2018-06-24T01:35:33.973Z,100045.45
2018-06-24T01:38:02.565Z,100048.62
2018-06-24T01:40:31.139Z,100042.45
2018-06-24T01:42:59.692Z,100039.73
2018-06-24T01:45:28.247Z,100039.20
2018-06-24T01:47:56.779Z,100038.58
2018-06-24T01:50:25.384Z,100038.66
2018-06-24T01:52:53.935Z,100032.16
2018-06-24T01:55:22.490Z,100028.41
2018-06-24T01:57:51.055Z,100019.39
2018-06-24T02:00:19.639Z,100015.03
2018-06-24T02:02:48.168Z,100015.58
2018-06-24T02:05:16.801Z,100014.56
2018-06-24T02:07:45.405Z,100010.56
2018-06-24T02:10:13.973Z,100006.83
2018-06-24T02:12:42.684Z,100010.55
2018-06-24T02:15:11.281Z,100007.76
2018-06-24T02:17:39.819Z,99998.25
2018-06-24T02:20:08.409Z,99991.42
2018-06-24T02:22:36.945Z,99992.81
2018-06-24T02:25:05.514Z,99988.67
2018-06-24T02:27:34.049Z,99994.88
2018-06-24T02:30:02.624Z,99990.45
2018-06-24T02:32:31.154Z,99991.75
2018-06-24T02:34:59.714Z,99990.28
2018-06-24T02:37:28.250Z,99990.53
2018-06-24T02:39:56.811Z,99992.20
2018-06-24T02:42:25.349Z,99990.00
2018-06-24T02:44:53.877Z,99997.01
2018-06-24T02:47:22.460Z,99989.05
2018-06-24T02:49:50.988Z,99979.23
2018-06-24T02:52:19.558Z,99984.77
2018-06-24T02:54:48.129Z,99988.53
2018-06-24T02:57:16.718Z,99984.27
2018-06-24T02:59:45.249Z,99975.97
2018-06-24T03:02:13.810Z,99971.32
2018-06-24T03:04:42.369Z,99972.03
2018-06-24T03:07:10.937Z,99970.32
2018-06-24T03:09:39.461Z,99972.90
2018-06-24T03:12:08.016Z,99968.25
2018-06-24T03:14:36.543Z,99963.59
2018-06-24T03:17:05.129Z,99966.88
2018-06-24T03:19:33.684Z,99961.76
2018-06-24T03:22:02.241Z,99968.64
2018-06-24T03:24:30.791Z,99964.86
2018-06-24T03:26:59.347Z,99966.62
2018-06-24T03:29:27.892Z,99971.03
2018-06-24T03:31:56.452Z,99969.61
2018-06-24T03:34:24.993Z,99964.20
2018-06-24T03:36:53.573Z,99962.25
2018-06-24T03:39:22.464Z,99972.88
2018-06-24T03:41:51.053Z,99975.86
2018-06-24T03:44:19.618Z,99975.50
2018-06-24T03:46:48.222Z,99971.80
2018-06-24T03:49:16.770Z,99972.76
2018-06-24T03:51:45.329Z,99975.27
2018-06-24T03:54:13.853Z,99975.91
2018-06-24T03:56:42.411Z,99976.86
2018-06-24T03:59:10.938Z,99982.55
2018-06-24T04:01:39.506Z,99986.86
2018-06-24T04:04:08.073Z,99983.51
2018-06-24T04:06:36.645Z,99984.08
2018-06-24T04:09:07.066Z,99992.03
2018-06-24T04:11:35.687Z,99989.84
2018-06-24T04:14:04.257Z,99985.02
2018-06-24T04:16:32.835Z,99985.92
2018-06-24T04:19:01.362Z,99992.50
2018-06-24T04:21:29.933Z,99997.20
2018-06-24T04:23:58.478Z,99989.71
2018-06-24T04:26:27.143Z,99989.84
2018-06-24T04:28:55.670Z,99985.83
2018-06-24T04:31:24.229Z,99985.22
2018-06-24T04:33:52.820Z,99970.55
2018-06-24T04:36:21.352Z,99969.77
2018-06-24T04:38:49.906Z,99974.86
2018-06-24T04:41:18.481Z,99981.02
2018-06-24T04:43:47.063Z,99979.23
2018-06-24T04:46:15.854Z,99975.98
2018-06-24T04:48:44.438Z,99972.79
2018-06-24T04:51:12.992Z,99977.71
2018-06-24T04:53:41.565Z,99976.76
2018-06-24T04:56:10.093Z,99968.38
2018-06-24T04:58:38.681Z,99978.36
2018-06-24T05:01:07.269Z,99973.94
2018-06-24T05:03:35.857Z,99973.73
2018-06-24T05:06:04.497Z,99973.97
2018-06-24T05:08:33.058Z,99978.22
2018-06-24T05:11:01.583Z,99978.98
2018-06-24T05:13:30.160Z,99980.39
2018-06-24T05:15:58.756Z,99983.56
2018-06-24T05:18:27.312Z,99987.45
2018-06-24T05:20:55.866Z,99983.63
2018-06-24T05:23:24.433Z,99984.08
2018-06-24T05:25:52.961Z,99979.95
2018-06-24T05:28:21.551Z,99980.45
2018-06-24T05:30:50.116Z,99980.01
2018-06-24T05:33:18.687Z,99981.72
2018-06-24T05:35:47.246Z,99976.84
2018-06-24T05:38:15.824Z,99977.53
2018-06-24T05:40:44.390Z,99975.63
2018-06-24T05:43:13.053Z,99975.47
2018-06-24T05:45:41.594Z,99970.66
2018-06-24T05:48:10.169Z,99971.20
2018-06-24T05:50:38.705Z,99988.31
2018-06-24T05:53:07.303Z,99985.98
2018-06-24T05:55:35.841Z,99980.16
2018-06-24T05:58:04.721Z,99983.47
2018-06-24T06:00:33.322Z,99987.77
2018-06-24T06:03:01.920Z,99981.38
2018-06-24T06:05:30.494Z,99982.60
2018-06-24T06:07:59.071Z,99984.58
2018-06-24T06:10:27.728Z,99976.77
2018-06-24T06:12:56.185Z,99983.34
2018-06-24T06:15:24.736Z,99976.95
2018-06-24T06:17:53.410Z,99978.00
2018-06-24T06:20:21.985Z,99979.87
2018-06-24T06:22:50.514Z,99974.22
2018-06-24T06:25:19.109Z,99972.12
2018-06-24T06:27:47.644Z,99967.25
2018-06-24T06:30:16.538Z,99967.22
2018-06-24T06:32:45.775Z,99973.27
2018-06-24T06:35:14.515Z,99965.19
2018-06-24T06:37:43.102Z,99967.63
2018-06-24T06:40:11.673Z,99965.71
2018-06-24T06:42:40.196Z,99962.69
2018-06-24T06:45:08.835Z,99966.81
2018-06-24T06:47:37.343Z,99970.03
2018-06-24T06:50:06.674Z,99965.07
2018-06-24T06:52:35.240Z,99964.58
2018-06-24T06:55:03.881Z,99969.33
2018-06-24T06:57:32.421Z,99968.55
2018-06-24T07:00:01.070Z,99971.14
2018-06-24T07:02:29.620Z,99969.70
2018-06-24T07:05:03.350Z,99965.66
2018-06-24T07:07:32.222Z,99970.43
2018-06-24T07:10:00.792Z,99969.94
2018-06-24T07:12:29.369Z,99968.05
2018-06-24T07:14:57.921Z,99962.03
2018-06-24T07:17:26.793Z,99965.09
2018-06-24T07:19:55.385Z,99960.11
2018-06-24T07:22:23.920Z,99957.36
2018-06-24T07:24:53.282Z,99964.41
2018-06-24T07:27:21.857Z,99952.77
2018-06-24T07:29:50.482Z,99959.67
2018-06-24T07:32:19.422Z,99964.16
2018-06-24T07:34:47.980Z,99958.18
2018-06-24T07:37:16.536Z,99953.57
2018-06-24T07:39:45.123Z,99951.35
2018-06-24T07:42:13.700Z,99953.23
2018-06-24T07:44:42.294Z,99954.73
2018-06-24T07:47:10.854Z,99945.72
2018-06-24T07:49:39.420Z,99944.41
2018-06-24T07:52:07.941Z,99942.77
2018-06-24T07:54:41.212Z,99941.11
2018-06-24T07:57:14.036Z,99936.55
2018-06-24T07:59:42.774Z,99934.03
2018-06-24T08:02:13.891Z,99935.17
2018-06-24T08:04:44.322Z,99935.66
2018-06-24T08:07:14.739Z,99928.24
2018-06-24T08:09:46.789Z,99930.80
2018-06-24T08:12:18.726Z,99939.02
2018-06-24T08:14:49.582Z,99939.94
2018-06-24T08:17:25.222Z,99940.09
2018-06-24T08:19:58.592Z,99941.08
2018-06-24T08:22:28.642Z,99936.36
2018-06-24T08:25:00.049Z,99934.92
2018-06-24T08:27:32.322Z,99928.02
2018-06-24T08:30:06.238Z,99931.32
2018-06-24T08:32:38.126Z,99913.77
2018-06-24T08:35:10.796Z,99925.48
2018-06-24T08:37:39.629Z,99927.09
2018-06-24T08:40:09.883Z,99928.91
2018-06-24T08:42:40.159Z,99932.81
2018-06-24T08:45:11.770Z,99935.05
2018-06-24T08:47:41.388Z,99934.10
2018-06-24T08:50:10.647Z,99930.55
2018-06-24T08:52:41.165Z,99934.38
2018-06-24T08:55:10.890Z,99937.36
2018-06-24T08:57:42.560Z,99934.19
2018-06-24T09:00:12.630Z,99927.84
2018-06-24T09:02:41.341Z,99925.07
2018-06-24T09:05:11.359Z,99926.40
2018-06-24T09:07:40.237Z,99925.66
2018-06-24T09:10:09.078Z,99921.04
2018-06-24T09:12:37.806Z,99919.28
2018-06-24T09:15:08.031Z,99924.03
2018-06-24T09:17:40.035Z,99931.52
2018-06-24T09:20:11.173Z,99928.80
2018-06-24T09:22:41.132Z,99929.12
2018-06-24T09:25:10.749Z,99926.90
2018-06-24T09:27:40.131Z,99920.34
2018-06-24T09:30:09.782Z,99919.53
2018-06-24T09:32:38.477Z,99916.45
2018-06-24T09:35:08.333Z,99916.78
2018-06-24T09:37:38.248Z,99917.05
2018-06-24T09:40:10.534Z,99923.00
2018-06-24T09:42:40.722Z,99925.28
2018-06-24T09:45:10.465Z,99924.08
2018-06-24T09:47:42.689Z,99919.06
2018-06-24T09:50:12.537Z,99920.55
2018-06-24T09:52:41.566Z,99914.20
2018-06-24T09:55:17.090Z,99916.92
2018-06-24T09:57:47.809Z,99919.12
2018-06-24T10:00:24.661Z,99914.34
2018-06-24T10:02:54.980Z,99913.03
2018-06-24T10:05:26.015Z,99908.13
2018-06-24T10:07:57.561Z,99919.45
2018-06-24T10:10:37.086Z,99920.09
2018-06-24T10:13:06.802Z,99914.02
2018-06-24T10:15:36.996Z,99915.27
2018-06-24T10:18:06.413Z,99925.66
2018-06-24T10:20:35.397Z,99921.64
2018-06-24T10:23:04.305Z,99922.41
2018-06-24T10:25:35.238Z,99925.80
2018-06-24T10:28:06.153Z,99916.61
2018-06-24T10:30:36.567Z,99915.30
2018-06-24T10:33:05.874Z,99914.22
2018-06-24T10:35:36.323Z,99918.42
2018-06-24T10:38:05.134Z,99916.75
2018-06-24T10:40:38.849Z,99913.00
2018-06-24T10:43:09.626Z,99916.59
2018-06-24T10:45:41.365Z,99914.12
2018-06-24T10:48:15.977Z,99902.70
2018-06-24T10:50:45.534Z,99913.14
2018-06-24T10:53:14.437Z,99905.06
2018-06-24T10:55:43.818Z,99891.12
2018-06-24T10:58:13.928Z,99880.92
2018-06-24T11:00:42.572Z,99902.06
2018-06-24T11:03:13.070Z,99899.87
2018-06-24T11:05:49.316Z,99896.23
2018-06-24T11:08:25.037Z,99903.03
2018-06-24T11:10:55.308Z,99906.65
2018-06-24T11:13:28.756Z,99909.59
2018-06-24T11:16:03.399Z,99907.81
2018-06-24T11:18:33.284Z,99902.95
2018-06-24T11:21:06.678Z,99902.12
2018-06-24T11:23:37.261Z,99896.19
2018-06-24T11:26:06.774Z,99896.19
2018-06-24T11:28:37.131Z,99894.67
2018-06-24T11:31:08.942Z,99889.38
2018-06-24T11:33:40.127Z,99885.31
2018-06-24T11:36:10.489Z,99876.38
2018-06-24T11:38:42.398Z,99879.66
2018-06-24T11:41:12.567Z,99881.60
2018-06-24T11:43:47.256Z,99875.94
2018-06-24T11:46:18.061Z,99876.13
2018-06-24T11:48:46.618Z,99873.52
2018-06-24T11:51:18.147Z,99872.00
2018-06-24T11:53:49.497Z,99876.88
2018-06-24T11:56:19.447Z,99875.38
2018-06-24T11:58:48.556Z,99868.35
2018-06-24T12:01:22.766Z,99876.72
2018-06-24T12:03:58.426Z,99875.33
2018-06-24T12:06:30.658Z,99874.94
2018-06-24T12:09:01.029Z,99874.42
2018-06-24T12:11:34.633Z,99867.55
2018-06-24T12:14:03.561Z,99861.38
2018-06-24T12:16:37.715Z,99856.23
2018-06-24T12:19:08.057Z,99855.83
2018-06-24T12:21:39.354Z,99864.36
2018-06-24T12:24:10.219Z,99855.77
2018-06-24T12:26:44.134Z,99850.28
2018-06-24T12:29:20.642Z,99857.08
2018-06-24T12:31:58.889Z,99850.59
2018-06-24T12:34:33.496Z,99847.63
2018-06-24T12:37:08.139Z,99846.64
2018-06-24T12:39:36.996Z,99846.91
2018-06-24T12:42:05.537Z,99836.89
2018-06-24T12:44:34.089Z,99839.89
2018-06-24T12:47:02.618Z,99840.51
2018-06-24T12:49:37.943Z,99840.92
2018-06-24T12:52:06.974Z,99827.78
2018-06-24T12:54:35.547Z,99827.92
2018-06-24T12:57:04.165Z,99828.92
2018-06-24T12:59:32.919Z,99830.84
2018-06-24T13:02:01.310Z,99826.88
2018-06-24T13:04:29.903Z,99822.52
2018-06-24T13:06:58.455Z,99821.91
2018-06-24T13:09:27.504Z,99822.53
2018-06-24T13:11:56.062Z,99822.50
2018-06-24T13:14:24.646Z,99824.98
2018-06-24T13:16:53.199Z,99814.38
2018-06-24T13:19:22.085Z,99811.75
2018-06-24T13:21:50.602Z,99812.94
2018-06-24T13:24:19.190Z,99805.13
2018-06-24T13:26:47.834Z,99806.05
2018-06-24T13:29:16.414Z,99819.30
2018-06-24T13:31:44.973Z,99812.45
2018-06-24T13:36:41.022Z,99807.80
2018-06-24T13:39:10.837Z,99806.48
2018-06-24T13:44:07.338Z,99804.74
2018-06-24T13:46:35.963Z,99805.78
2018-06-24T13:49:04.537Z,99805.08
2018-06-24T13:51:33.094Z,99802.91
2018-06-24T13:54:01.618Z,99802.08
2018-06-24T13:56:30.199Z,99805.45
2018-06-24T13:58:58.735Z,99802.08
2018-06-24T14:01:27.339Z,99804.19
2018-06-24T14:03:56.097Z,99790.40
2018-06-24T14:06:24.657Z,99811.50
2018-06-24T14:08:53.184Z,99816.27
2018-06-24T14:11:21.729Z,99805.58
2018-06-24T14:13:50.273Z,99809.01
2018-06-24T14:16:18.840Z,99812.19
2018-06-24T14:18:47.379Z,99806.39
2018-06-24T14:21:15.935Z,99813.34
2018-06-24T14:23:44.455Z,99798.33
2018-06-24T14:26:13.086Z,99797.14
2018-06-24T14:28:41.624Z,99798.52
2018-06-24T14:31:11.809Z,99796.73
2018-06-24T14:33:40.902Z,99796.73
2018-06-24T14:36:09.519Z,99791.58
2018-06-24T14:38:40.019Z,99789.89
2018-06-24T14:41:08.651Z,99795.44
2018-06-24T14:43:37.176Z,99792.10
2018-06-24T14:46:05.941Z,99790.00
2018-06-24T14:48:34.488Z,99784.62
2018-06-24T14:51:04.700Z,99781.11
2018-06-24T14:53:33.287Z,99785.98
2018-06-24T14:56:01.880Z,99778.06
2018-06-24T14:58:30.402Z,99786.92
2018-06-24T15:00:58.966Z,99786.03
2018-06-24T15:03:27.513Z,99777.25
2018-06-24T15:05:56.318Z,99782.05
2018-06-24T15:08:28.701Z,99781.95
2018-06-24T15:10:57.589Z,99780.20
2018-06-24T15:13:26.334Z,99784.53
2018-06-24T15:15:56.811Z,99788.99
2018-06-24T15:18:26.253Z,99792.91
2018-06-24T15:20:54.854Z,99785.23
2018-06-24T15:23:23.370Z,99789.89
2018-06-24T15:25:51.922Z,99784.97
2018-06-24T15:28:20.689Z,99784.09
2018-06-24T15:30:49.253Z,99785.97
2018-06-24T15:33:17.785Z,99780.20
2018-06-24T15:35:46.370Z,99784.66
2018-06-24T15:38:14.909Z,99787.41
2018-06-24T15:40:43.486Z,99781.19
2018-06-24T15:43:12.014Z,99783.70
2018-06-24T15:45:40.573Z,99784.77
2018-06-24T15:48:09.161Z,99779.44
2018-06-24T15:50:37.678Z,99768.59
2018-06-24T15:53:06.535Z,99768.51
2018-06-24T15:55:35.109Z,99772.36
2018-06-24T15:58:03.680Z,99773.36
2018-06-24T16:00:32.209Z,99768.00
2018-06-24T16:03:00.753Z,99769.70
2018-06-24T16:05:29.302Z,99772.10
2018-06-24T16:07:57.860Z,99769.53
2018-06-24T16:10:26.402Z,99767.64
2018-06-24T16:12:54.976Z,99771.12
2018-06-24T16:15:23.539Z,99769.52
2018-06-24T16:17:52.096Z,99765.32
2018-06-24T16:20:20.674Z,99768.88
2018-06-24T16:22:49.222Z,99757.45
2018-06-24T16:25:17.758Z,99757.13
2018-06-24T16:27:46.323Z,99756.19
2018-06-24T16:30:15.230Z,99756.31
2018-06-24T16:32:43.809Z,99750.03
2018-06-24T16:35:12.339Z,99750.75
2018-06-24T16:37:40.854Z,99753.92
2018-06-24T16:40:09.473Z,99755.66
2018-06-24T16:42:38.076Z,99755.49
2018-06-24T16:45:06.754Z,99756.11
2018-06-24T16:47:35.329Z,99759.27
2018-06-24T16:50:03.989Z,99761.23
2018-06-24T16:52:32.555Z,99752.66
2018-06-24T16:55:01.139Z,99762.17
2018-06-24T16:57:29.693Z,99760.93
2018-06-24T16:59:58.529Z,99760.50
2018-06-24T17:02:27.070Z,99760.62
2018-06-24T17:04:56.720Z,99758.72
2018-06-24T17:07:25.319Z,99757.73
2018-06-24T17:09:53.897Z,99767.06
2018-06-24T17:12:22.450Z,99756.36
2018-06-24T17:14:51.039Z,99755.38
2018-06-24T17:17:19.573Z,99763.04
2018-06-24T17:19:48.156Z,99768.33
2018-06-24T17:22:16.680Z,99766.64
2018-06-24T17:24:45.249Z,99765.41
2018-06-24T17:27:13.780Z,99767.82
2018-06-24T17:29:42.332Z,99770.95
2018-06-24T17:32:10.861Z,99770.64
2018-06-24T17:34:39.435Z,99767.97
2018-06-24T17:37:08.618Z,99776.39
2018-06-24T17:39:37.196Z,99770.50
2018-06-24T17:42:05.749Z,99773.23
2018-06-24T17:44:34.329Z,99774.78
2018-06-24T17:47:02.866Z,99775.61
2018-06-24T17:49:31.437Z,99768.95
2018-06-24T17:51:59.968Z,99772.71
2018-06-24T17:54:28.545Z,99775.81
2018-06-24T17:56:57.787Z,99776.61
2018-06-24T17:59:27.019Z,99777.55
2018-06-24T18:01:55.646Z,99773.23
2018-06-24T18:04:24.320Z,99773.86
2018-06-24T18:06:52.849Z,99773.41
2018-06-24T18:09:21.414Z,99772.60
2018-06-24T18:11:49.941Z,99775.55
2018-06-24T18:14:18.509Z,99777.14
2018-06-24T18:16:47.036Z,99773.23
2018-06-24T18:19:15.638Z,99768.91
2018-06-24T18:21:44.202Z,99777.23
2018-06-24T18:24:14.113Z,99772.02
2018-06-24T18:26:42.668Z,99774.71
2018-06-24T18:29:11.598Z,99773.60
2018-06-24T18:31:41.092Z,99775.40
2018-06-24T18:34:10.117Z,99776.12
2018-06-24T18:36:38.662Z,99775.51
2018-06-24T18:39:09.394Z,99777.64
2018-06-24T18:41:38.279Z,99774.98
2018-06-24T18:44:07.177Z,99774.74
2018-06-24T18:46:36.140Z,99773.15
2018-06-24T18:49:04.761Z,99779.43
2018-06-24T18:51:33.322Z,99773.05
2018-06-24T18:54:01.875Z,99778.52
2018-06-24T18:56:30.649Z,99775.49
2018-06-24T18:58:59.458Z,99784.23
2018-06-24T19:01:28.025Z,99785.01
2018-06-24T19:03:58.976Z,99783.20
2018-06-24T19:06:29.310Z,99786.16
2018-06-24T19:08:58.000Z,99778.94
2018-06-24T19:11:27.237Z,99785.44
2018-06-24T19:14:07.159Z,99787.87
2018-06-24T19:16:35.725Z,99789.98
2018-06-24T19:19:04.281Z,99792.66
2018-06-24T19:21:32.851Z,99796.64
2018-06-24T19:24:01.396Z,99791.66
2018-06-24T19:26:29.956Z,99794.54
2018-06-24T19:28:58.517Z,99794.92
2018-06-24T19:31:27.346Z,99801.15
2018-06-24T19:33:55.989Z,99803.98
2018-06-24T19:36:24.869Z,99803.72
2018-06-24T19:38:53.461Z,99805.48
2018-06-24T19:41:22.274Z,99808.93
2018-06-24T19:43:50.813Z,99814.47
2018-06-24T19:46:19.414Z,99814.34
2018-06-24T19:48:48.138Z,99815.42
2018-06-24T19:51:16.727Z,99825.03
2018-06-24T19:53:45.578Z,99827.90
2018-06-24T19:56:18.537Z,99827.97
2018-06-24T19:58:47.162Z,99828.15
2018-06-24T20:01:15.728Z,99832.58
2018-06-24T20:03:45.835Z,99839.12
2018-06-24T20:06:15.153Z,99836.58
2018-06-24T20:08:43.763Z,99837.95
2018-06-24T20:11:13.949Z,99832.44
2018-06-24T20:13:51.655Z,99842.20
2018-06-24T20:16:24.155Z,99835.34
2018-06-24T20:18:52.760Z,99837.92
2018-06-24T20:21:21.309Z,99839.24
2018-06-24T20:23:50.076Z,99843.48
2018-06-24T20:26:19.189Z,99840.73
2018-06-24T20:28:47.704Z,99839.22
2018-06-24T20:31:16.254Z,99841.72
2018-06-24T20:33:44.796Z,99849.81
2018-06-24T20:36:13.315Z,99842.34
2018-06-24T20:38:42.468Z,99849.96
2018-06-24T20:41:13.737Z,99859.99
2018-06-24T20:43:42.533Z,99855.27
2018-06-24T20:46:11.500Z,99854.06
2018-06-24T20:48:40.959Z,99852.66
2018-06-24T20:51:13.365Z,99856.03
2018-06-24T20:53:41.994Z,99858.09
2018-06-24T20:56:10.539Z,99859.06
2018-06-24T20:58:39.266Z,99845.80
2018-06-24T21:01:07.801Z,99852.33
2018-06-24T21:03:36.357Z,99853.53
2018-06-24T21:06:04.954Z,99854.98
2018-06-24T21:08:33.547Z,99847.14
2018-06-24T21:11:02.110Z,99849.78
2018-06-24T21:13:30.673Z,99859.66
2018-06-24T21:15:59.208Z,99866.89
2018-06-24T21:18:27.769Z,99866.89
2018-06-24T21:20:56.299Z,99865.47
2018-06-24T21:23:24.859Z,99870.17
2018-06-24T21:25:53.397Z,99863.53
2018-06-24T21:28:21.973Z,99868.59
2018-06-24T21:30:50.516Z,99874.36
2018-06-24T21:33:19.393Z,99871.24
2018-06-24T21:35:47.906Z,99874.85
2018-06-24T21:38:16.461Z,99885.20
2018-06-24T21:40:45.141Z,99878.84
2018-06-24T21:43:13.700Z,99880.00
2018-06-24T21:45:42.257Z,99875.17
2018-06-24T21:48:10.816Z,99880.93
2018-06-24T21:50:39.332Z,99880.93
2018-06-24T21:53:07.889Z,99884.41
2018-06-24T21:55:36.415Z,99885.84
2018-06-24T21:58:05.193Z,99887.91
2018-06-24T22:00:33.747Z,99883.27
2018-06-24T22:03:02.303Z,99895.91
2018-06-24T22:05:30.905Z,99888.17
2018-06-24T22:08:00.054Z,99891.12
2018-06-24T22:10:28.582Z,99890.25
2018-06-24T22:12:57.152Z,99885.95
2018-06-24T22:15:25.681Z,99890.41
2018-06-24T22:17:54.241Z,99881.14
2018-06-24T22:20:22.776Z,99875.42
2018-06-24T22:22:51.326Z,99874.41
2018-06-24T22:25:20.004Z,99880.42
2018-06-24T22:27:48.765Z,99888.36
2018-06-24T22:30:17.312Z,99878.92
2018-06-24T22:32:45.833Z,99884.55
2018-06-24T22:35:14.396Z,99885.77
2018-06-24T22:37:42.898Z,99882.05
2018-06-24T22:40:11.460Z,99880.65
2018-06-24T22:42:39.985Z,99881.58
2018-06-24T22:45:08.534Z,99845.06
2018-06-24T22:47:37.352Z,99884.82
2018-06-24T22:50:06.210Z,99878.67
2018-06-24T22:52:34.729Z,99879.31
2018-06-24T22:55:03.298Z,99877.60
2018-06-24T22:57:31.812Z,99880.85
2018-06-24T23:00:08.050Z,99878.64
2018-06-24T23:02:36.597Z,99887.37
2018-06-24T23:05:05.228Z,99886.20
2018-06-24T23:07:33.738Z,99894.16
2018-06-24T23:10:02.569Z,99900.22
2018-06-24T23:12:31.096Z,99898.05
2018-06-24T23:15:00.309Z,99903.23
2018-06-24T23:17:28.829Z,99901.92
2018-06-24T23:19:57.397Z,99892.56
2018-06-24T23:22:25.915Z,99888.22
2018-06-24T23:24:54.450Z,99885.27
2018-06-24T23:27:22.989Z,99882.55
2018-06-24T23:29:51.864Z,99879.42
2018-06-24T23:32:20.382Z,99873.95
2018-06-24T23:34:48.934Z,99880.83
2018-06-24T23:37:17.457Z,99887.69
2018-06-24T23:39:46.027Z,99878.92
2018-06-24T23:42:14.561Z,99883.74
2018-06-24T23:44:43.361Z,99882.70
2018-06-24T23:47:11.967Z,99880.27
2018-06-24T23:49:40.563Z,99884.22
2018-06-24T23:52:09.337Z,99886.87
2018-06-24T23:54:37.894Z,99884.90
2018-06-24T23:57:06.997Z,99888.35
2018-06-24T23:59:36.024Z,99889.25
